Time;durP1;ratioP1;P1;durP2;ratioP2;P2;SDS_P1;SDS_P2;PMS_P1;PMS_P2;Temp;Humidity;BMP_temperature;BMP_pressure;BME280_temperature;BME280_humidity;BME280_pressure;Samples;Min_cycle;Max_cycle;Signal;HPM_P1;HPM_P2
2023/02/01 00:01:28;;;;;;;58.08;30.55;;;;;;;;;;6132747;28;20142;-71
2023/02/01 00:04:30;;;;;;;64.30;30.75;;;;;;;;;;6125099;28;20056;-71
2023/02/01 00:07:33;;;;;;;58.45;30.13;;;;;;;;;;6127240;28;20047;-70
2023/02/01 00:10:35;;;;;;;58.17;28.90;;;;;;;;;;6127919;28;20064;-71
2023/02/01 00:13:38;;;;;;;58.28;29.73;;;;;;;;;;6129559;28;20055;-71
2023/02/01 00:16:40;;;;;;;57.38;28.17;;;;;;;;;;6128028;28;20056;-69
2023/02/01 00:19:42;;;;;;;56.05;30.15;;;;;;;;;;6128088;28;20056;-70
2023/02/01 00:22:45;;;;;;;58.70;28.73;;;;;;;;;;6126425;28;20064;-70
2023/02/01 00:25:46;;;;;;;56.10;29.05;;;;;;;;;;6125751;28;20467;-70
2023/02/01 00:28:48;;;;;;;59.03;28.60;;;;;;;;;;6128515;28;20047;-70
2023/02/01 00:31:51;;;;;;;51.50;29.42;;;;;;;;;;6125376;28;20075;-71
2023/02/01 00:34:53;;;;;;;47.30;26.20;;;;;;;;;;6125801;28;20067;-72
2023/02/01 00:37:58;;;;;;;68.60;34.58;;;;;;;;;;6128583;28;20126;-68
2023/02/01 00:41:03;;;;;;;204.30;90.00;;;;;;;;;;6129099;28;20047;-73
2023/02/01 00:44:05;;;;;;;83.43;40.58;;;;;;;;;;6127824;29;20058;-72
2023/02/01 00:47:07;;;;;;;52.13;29.27;;;;;;;;;;6125825;28;20059;-72
2023/02/01 00:50:09;;;;;;;51.85;28.35;;;;;;;;;;6124214;28;20060;-72
2023/02/01 00:53:13;;;;;;;96.85;49.10;;;;;;;;;;6126000;28;20115;-72
2023/02/01 00:56:14;;;;;;;54.72;29.05;;;;;;;;;;6123082;28;20236;-70
2023/02/01 00:59:16;;;;;;;48.55;25.13;;;;;;;;;;6125997;28;20075;-71
2023/02/01 01:02:18;;;;;;;47.15;25.80;;;;;;;;;;6127739;28;20059;-70
2023/02/01 01:05:20;;;;;;;54.13;26.35;;;;;;;;;;6127933;28;20085;-71
2023/02/01 01:08:23;;;;;;;43.03;24.30;;;;;;;;;;6129109;28;20119;-71
2023/02/01 01:11:26;;;;;;;45.08;24.50;;;;;;;;;;6123913;28;23327;-71
2023/02/01 01:14:27;;;;;;;50.03;26.65;;;;;;;;;;6124554;28;20047;-72
2023/02/01 01:17:29;;;;;;;50.25;26.45;;;;;;;;;;6125951;28;20337;-70
2023/02/01 01:20:31;;;;;;;46.05;25.30;;;;;;;;;;6124910;28;20052;-69
2023/02/01 01:23:35;;;;;;;46.63;23.80;;;;;;;;;;6127986;28;20056;-70
2023/02/01 01:26:36;;;;;;;46.60;24.85;;;;;;;;;;6121661;28;20048;-70
2023/02/01 01:29:38;;;;;;;46.42;22.90;;;;;;;;;;6128395;28;20415;-70
2023/02/01 01:32:40;;;;;;;42.83;22.13;;;;;;;;;;6125030;28;20063;-69
2023/02/01 01:35:41;;;;;;;43.13;21.65;;;;;;;;;;6124703;28;20055;-70
2023/02/01 01:38:44;;;;;;;36.30;20.98;;;;;;;;;;6125947;28;20231;-70
2023/02/01 01:41:46;;;;;;;42.63;21.98;;;;;;;;;;6127313;29;20059;-70
2023/02/01 01:45:03;;;;;;;42.60;20.98;;;;;;;;;;6126037;28;20063;-71
2023/02/01 01:48:07;;;;;;;38.97;20.30;;;;;;;;;;6122610;28;20063;-70
2023/02/01 01:51:11;;;;;;;39.08;19.95;;;;;;;;;;6126223;28;20071;-71
2023/02/01 01:54:17;;;;;;;41.20;20.25;;;;;;;;;;6125443;29;20056;-73
2023/02/01 01:57:21;;;;;;;38.58;19.40;;;;;;;;;;6130033;28;20056;-70
2023/02/01 02:00:23;;;;;;;37.30;19.70;;;;;;;;;;6131007;28;20111;-68
2023/02/01 02:03:30;;;;;;;37.63;20.80;;;;;;;;;;6132754;28;20051;-69
2023/02/01 02:06:40;;;;;;;38.85;19.58;;;;;;;;;;6127825;28;20055;-69
2023/02/01 02:09:43;;;;;;;35.95;18.83;;;;;;;;;;6128842;28;20083;-69
2023/02/01 02:12:47;;;;;;;38.35;19.98;;;;;;;;;;6128445;28;20055;-70
2023/02/01 02:16:00;;;;;;;34.38;18.65;;;;;;;;;;6128778;28;20108;-70
2023/02/01 02:19:19;;;;;;;34.88;18.60;;;;;;;;;;6127661;28;20110;-70
2023/02/01 02:22:36;;;;;;;34.30;19.48;;;;;;;;;;6132563;28;20126;-70
2023/02/01 02:26:15;;;;;;;40.03;18.80;;;;;;;;;;6128279;29;20273;-70
2023/02/01 02:29:53;;;;;;;37.53;18.73;;;;;;;;;;6109197;28;20056;-69
2023/02/01 02:33:24;;;;;;;40.35;19.67;;;;;;;;;;6125935;28;20107;-69
2023/02/01 02:36:33;;;;;;;41.75;19.67;;;;;;;;;;6127222;28;20235;-69
2023/02/01 02:39:42;;;;;;;38.08;17.90;;;;;;;;;;6125522;28;20059;-69
2023/02/01 02:49:42;;;;;;;29.85;16.95;;;;;;;;;;6122962;28;20063;-69
2023/02/01 03:06:14;;;;;;;34.58;17.70;;;;;;;;;;6128709;28;20048;-69
2023/02/01 03:09:21;;;;;;;35.13;17.75;;;;;;;;;;6127550;28;20319;-70
2023/02/01 03:15:46;;;;;;;35.30;18.35;;;;;;;;;;6131893;28;20347;-68
2023/02/01 03:18:52;;;;;;;32.50;18.17;;;;;;;;;;6128244;28;21223;-68
2023/02/01 03:22:00;;;;;;;31.35;18.02;;;;;;;;;;6131103;28;20271;-70
2023/02/01 03:25:07;;;;;;;34.95;18.30;;;;;;;;;;6127215;28;20048;-70
2023/02/01 03:28:10;;;;;;;37.58;18.83;;;;;;;;;;6126588;28;20103;-70
2023/02/01 03:31:13;;;;;;;32.05;18.45;;;;;;;;;;6124226;28;20273;-70
2023/02/01 03:34:15;;;;;;;29.75;16.90;;;;;;;;;;6126639;29;20064;-70
2023/02/01 03:37:23;;;;;;;32.38;16.35;;;;;;;;;;6128003;28;20707;-70
2023/02/01 03:40:25;;;;;;;26.38;14.57;;;;;;;;;;6127805;28;20056;-67
2023/02/01 03:43:28;;;;;;;29.13;15.55;;;;;;;;;;6130376;28;20297;-67
2023/02/01 03:46:33;;;;;;;32.00;15.50;;;;;;;;;;6125875;28;20059;-70
2023/02/01 03:49:36;;;;;;;27.75;15.90;;;;;;;;;;6126575;28;20075;-69
2023/02/01 03:52:43;;;;;;;30.65;15.43;;;;;;;;;;6125536;28;20067;-69
2023/02/01 03:55:45;;;;;;;27.67;15.18;;;;;;;;;;6129281;28;20067;-69
2023/02/01 03:58:58;;;;;;;33.83;17.08;;;;;;;;;;6128090;28;20047;-70
2023/02/01 04:02:00;;;;;;;33.58;14.70;;;;;;;;;;6128457;28;20100;-69
2023/02/01 04:05:02;;;;;;;29.05;15.13;;;;;;;;;;6125748;28;20063;-70
2023/02/01 04:08:05;;;;;;;29.48;15.20;;;;;;;;;;6129542;28;20074;-70
2023/02/01 04:11:07;;;;;;;34.63;15.50;;;;;;;;;;6126556;28;20130;-69
2023/02/01 04:14:09;;;;;;;31.25;14.38;;;;;;;;;;6127248;28;20344;-69
2023/02/01 04:17:11;;;;;;;27.38;14.80;;;;;;;;;;6127758;28;20064;-70
2023/02/01 04:20:12;;;;;;;27.05;14.40;;;;;;;;;;6126177;28;20090;-66
2023/02/01 04:23:16;;;;;;;28.15;14.27;;;;;;;;;;6128308;28;20056;-70
2023/02/01 04:26:18;;;;;;;30.13;14.13;;;;;;;;;;6126795;28;20060;-70
2023/02/01 04:29:20;;;;;;;27.05;14.23;;;;;;;;;;6127572;28;20048;-69
2023/02/01 04:32:21;;;;;;;31.48;15.38;;;;;;;;;;6124468;29;20749;-69
2023/02/01 04:35:23;;;;;;;28.70;14.80;;;;;;;;;;6127245;28;20492;-70
2023/02/01 04:38:29;;;;;;;26.77;14.10;;;;;;;;;;6125323;28;20347;-70
2023/02/01 04:41:30;;;;;;;28.63;13.80;;;;;;;;;;6128729;28;20142;-70
2023/02/01 04:44:32;;;;;;;26.65;13.98;;;;;;;;;;6127073;28;20166;-69
2023/02/01 04:47:34;;;;;;;28.55;13.27;;;;;;;;;;6127261;29;20055;-70
2023/02/01 04:50:35;;;;;;;26.42;13.90;;;;;;;;;;6123959;28;20051;-70
2023/02/01 04:53:38;;;;;;;26.15;13.63;;;;;;;;;;6126442;29;20327;-69
2023/02/01 04:56:40;;;;;;;29.17;14.75;;;;;;;;;;6124372;28;20056;-70
2023/02/01 04:59:42;;;;;;;21.20;12.25;;;;;;;;;;6124221;28;20143;-69
2023/02/01 05:02:43;;;;;;;30.92;13.95;;;;;;;;;;6126577;28;20059;-69
2023/02/01 05:05:45;;;;;;;26.88;12.88;;;;;;;;;;6124479;28;20056;-70
2023/02/01 05:08:48;;;;;;;21.73;12.40;;;;;;;;;;6128745;28;20067;-70
2023/02/01 05:15:09;;;;;;;24.25;12.80;;;;;;;;;;6124755;28;20058;-69
2023/02/01 05:18:11;;;;;;;28.35;12.32;;;;;;;;;;6126293;28;20067;-70
2023/02/01 05:21:13;;;;;;;26.55;12.70;;;;;;;;;;6126590;28;20362;-70
2023/02/01 05:24:19;;;;;;;23.67;11.93;;;;;;;;;;6125971;29;20047;-70
2023/02/01 05:27:21;;;;;;;25.67;12.52;;;;;;;;;;6123956;28;20065;-70
2023/02/01 05:30:23;;;;;;;22.85;11.35;;;;;;;;;;6127458;28;20143;-70
2023/02/01 05:33:24;;;;;;;23.13;11.75;;;;;;;;;;6124660;28;20055;-70
2023/02/01 05:36:26;;;;;;;21.50;11.50;;;;;;;;;;6126156;28;20060;-70
2023/02/01 05:39:29;;;;;;;21.88;12.25;;;;;;;;;;6124154;28;20267;-70
2023/02/01 05:42:31;;;;;;;29.65;13.20;;;;;;;;;;6124833;28;20126;-68
2023/02/01 05:45:32;;;;;;;21.48;10.43;;;;;;;;;;6128836;28;20051;-67
2023/02/01 05:48:34;;;;;;;20.35;11.27;;;;;;;;;;6127306;28;20052;-68
2023/02/01 05:51:36;;;;;;;25.23;10.02;;;;;;;;;;6124531;28;20866;-69
2023/02/01 05:54:39;;;;;;;18.42;9.68;;;;;;;;;;6126720;28;20060;-70
2023/02/01 05:57:40;;;;;;;24.60;11.23;;;;;;;;;;6126278;28;20048;-69
2023/02/01 06:00:42;;;;;;;28.13;12.73;;;;;;;;;;6125482;28;20225;-70
2023/02/01 06:03:43;;;;;;;21.15;10.93;;;;;;;;;;6124943;28;20110;-69
2023/02/01 06:06:45;;;;;;;24.02;11.18;;;;;;;;;;6123265;28;20293;-77
2023/02/01 06:09:48;;;;;;;20.65;10.88;;;;;;;;;;6124662;29;20059;-71
2023/02/01 06:12:50;;;;;;;28.63;11.52;;;;;;;;;;6127257;28;20059;-76
2023/02/01 06:15:52;;;;;;;23.05;11.23;;;;;;;;;;6124399;28;20059;-73
2023/02/01 06:18:53;;;;;;;24.05;11.75;;;;;;;;;;6125832;28;20056;-75
2023/02/01 06:21:55;;;;;;;27.38;12.02;;;;;;;;;;6124785;28;20342;-71
2023/02/01 06:24:59;;;;;;;27.58;12.40;;;;;;;;;;6128265;28;20060;-73
2023/02/01 06:28:01;;;;;;;27.98;12.30;;;;;;;;;;6123776;29;20323;-72
2023/02/01 06:31:06;;;;;;;29.77;12.50;;;;;;;;;;6124199;28;20106;-73
2023/02/01 06:34:07;;;;;;;22.30;11.02;;;;;;;;;;6126515;29;20055;-74
2023/02/01 06:37:10;;;;;;;28.88;12.43;;;;;;;;;;6123014;28;20052;-71
2023/02/01 06:40:14;;;;;;;24.90;11.63;;;;;;;;;;6123897;28;20056;-73
2023/02/01 06:43:15;;;;;;;33.00;12.97;;;;;;;;;;6130854;28;20048;-73
2023/02/01 06:46:17;;;;;;;27.25;13.40;;;;;;;;;;6127172;29;20639;-72
2023/02/01 06:49:19;;;;;;;25.20;12.77;;;;;;;;;;6130965;28;20062;-73
2023/02/01 06:52:21;;;;;;;27.00;13.15;;;;;;;;;;6127918;28;20063;-72
2023/02/01 06:55:24;;;;;;;29.80;14.00;;;;;;;;;;6128537;28;20047;-71
2023/02/01 06:58:29;;;;;;;27.40;13.70;;;;;;;;;;6126881;28;20055;-72
2023/02/01 07:01:30;;;;;;;32.25;14.07;;;;;;;;;;6129039;28;20118;-72
2023/02/01 07:04:32;;;;;;;28.08;14.13;;;;;;;;;;6125186;28;20054;-70
2023/02/01 07:07:34;;;;;;;26.45;13.38;;;;;;;;;;6127995;29;20395;-69
2023/02/01 07:10:37;;;;;;;28.60;12.75;;;;;;;;;;6122633;28;20052;-72
2023/02/01 07:13:39;;;;;;;26.33;14.03;;;;;;;;;;6127570;28;20107;-72
2023/02/01 07:16:41;;;;;;;27.45;13.70;;;;;;;;;;6126545;28;20056;-71
2023/02/01 07:19:43;;;;;;;25.98;12.77;;;;;;;;;;6128265;28;20059;-73
2023/02/01 07:22:44;;;;;;;26.77;13.00;;;;;;;;;;6127359;28;20055;-74
2023/02/01 07:25:47;;;;;;;22.95;12.23;;;;;;;;;;6127810;28;20542;-73
2023/02/01 07:28:49;;;;;;;25.08;12.07;;;;;;;;;;6126292;28;20059;-69
2023/02/01 07:31:51;;;;;;;22.23;12.18;;;;;;;;;;6128677;28;20054;-72
2023/02/01 07:34:52;;;;;;;25.42;12.45;;;;;;;;;;6127637;28;20055;-74
2023/02/01 07:37:54;;;;;;;21.33;11.07;;;;;;;;;;6129341;28;20429;-74
2023/02/01 07:41:00;;;;;;;22.73;12.02;;;;;;;;;;6128058;28;20059;-75
2023/02/01 07:44:02;;;;;;;22.25;11.52;;;;;;;;;;6129690;28;20123;-75
2023/02/01 07:47:03;;;;;;;19.35;10.80;;;;;;;;;;6127286;28;20059;-73
2023/02/01 07:50:05;;;;;;;21.50;11.18;;;;;;;;;;6126841;28;20801;-73
2023/02/01 07:53:07;;;;;;;20.73;10.43;;;;;;;;;;6127008;28;20132;-73
2023/02/01 07:56:13;;;;;;;17.35;10.30;;;;;;;;;;6129019;28;20059;-75
2023/02/01 07:59:15;;;;;;;28.42;14.35;;;;;;;;;;6130018;28;20059;-73
2023/02/01 08:02:17;;;;;;;32.50;15.38;;;;;;;;;;6128294;28;20151;-73
2023/02/01 08:05:19;;;;;;;30.05;15.52;;;;;;;;;;6126958;28;20048;-73
2023/02/01 08:08:21;;;;;;;28.80;16.63;;;;;;;;;;6128469;28;20075;-75
2023/02/01 08:11:25;;;;;;;27.98;15.80;;;;;;;;;;6129010;28;20069;-74
2023/02/01 08:14:27;;;;;;;28.20;15.40;;;;;;;;;;6128144;28;20070;-73
2023/02/01 08:17:29;;;;;;;30.63;14.80;;;;;;;;;;6126999;28;20052;-73
2023/02/01 08:20:30;;;;;;;29.92;16.38;;;;;;;;;;6128704;28;20486;-73
2023/02/01 08:23:32;;;;;;;36.10;16.70;;;;;;;;;;6127943;28;20102;-74
2023/02/01 08:26:35;;;;;;;27.88;15.57;;;;;;;;;;6128551;28;20079;-74
2023/02/01 08:29:36;;;;;;;25.27;14.43;;;;;;;;;;6125861;28;20233;-73
2023/02/01 08:32:38;;;;;;;24.52;15.43;;;;;;;;;;6130477;28;20292;-74
2023/02/01 08:35:40;;;;;;;25.23;14.90;;;;;;;;;;6127609;28;20158;-73
2023/02/01 08:38:41;;;;;;;32.35;15.07;;;;;;;;;;6124414;28;20286;-74
2023/02/01 08:42:50;;;;;;;28.73;14.95;;;;;;;;;;6123942;28;20130;-73
2023/02/01 08:45:08;;;;;;;27.65;15.68;;;;;;;;;;6125923;28;20070;-73
2023/02/01 08:48:10;;;;;;;29.95;17.85;;;;;;;;;;6126436;28;20055;-74
2023/02/01 08:51:14;;;;;;;33.40;21.38;;;;;;;;;;6128318;28;20071;-73
2023/02/01 08:54:15;;;;;;;27.35;17.08;;;;;;;;;;6127122;29;20239;-70
2023/02/01 08:57:19;;;;;;;30.50;17.20;;;;;;;;;;6129156;28;20060;-74
2023/02/01 09:00:21;;;;;;;29.27;17.37;;;;;;;;;;6127217;28;20091;-73
2023/02/01 09:03:22;;;;;;;32.67;17.77;;;;;;;;;;6128277;28;20055;-74
2023/02/01 09:06:24;;;;;;;31.40;16.92;;;;;;;;;;6125231;28;20107;-73
2023/02/01 09:09:28;;;;;;;30.40;17.02;;;;;;;;;;6127730;29;20685;-73
2023/02/01 09:12:34;;;;;;;32.10;17.90;;;;;;;;;;6125881;28;20316;-73
2023/02/01 09:15:35;;;;;;;31.38;18.75;;;;;;;;;;6128179;29;20044;-73
2023/02/01 09:18:37;;;;;;;27.27;17.23;;;;;;;;;;6126094;28;20056;-74
2023/02/01 09:21:38;;;;;;;28.63;16.33;;;;;;;;;;6127279;28;20099;-72
2023/02/01 09:24:40;;;;;;;29.33;15.27;;;;;;;;;;6126845;28;20052;-72
2023/02/01 09:27:43;;;;;;;27.92;14.48;;;;;;;;;;6126735;28;20305;-73
2023/02/01 09:30:45;;;;;;;23.30;13.95;;;;;;;;;;6125279;28;20186;-72
2023/02/01 09:33:46;;;;;;;24.80;13.43;;;;;;;;;;6125808;29;20051;-73
2023/02/01 09:36:48;;;;;;;22.55;13.80;;;;;;;;;;6127026;28;20055;-73
2023/02/01 09:39:50;;;;;;;24.00;13.25;;;;;;;;;;6128683;28;20055;-70
2023/02/01 09:43:06;;;;;;;24.60;13.35;;;;;;;;;;6124343;29;20059;-73
2023/02/01 09:46:19;;;;;;;22.58;13.40;;;;;;;;;;6125511;28;20062;-74
2023/02/01 09:49:23;;;;;;;21.60;12.52;;;;;;;;;;6129758;28;20051;-74
2023/02/01 09:52:29;;;;;;;22.38;13.10;;;;;;;;;;6124550;28;20060;-75
2023/02/01 09:55:36;;;;;;;25.75;13.00;;;;;;;;;;6127563;29;20056;-74
2023/02/01 09:58:42;;;;;;;25.67;12.50;;;;;;;;;;6126012;28;20055;-75
2023/02/01 10:01:45;;;;;;;25.13;11.80;;;;;;;;;;6126926;28;20052;-74
2023/02/01 10:04:48;;;;;;;25.15;12.23;;;;;;;;;;6126286;28;20047;-74
2023/02/01 10:07:59;;;;;;;21.15;12.82;;;;;;;;;;6124358;28;20060;-74
2023/02/01 10:11:06;;;;;;;21.05;11.10;;;;;;;;;;6124672;28;20060;-70
2023/02/01 10:14:13;;;;;;;18.63;11.50;;;;;;;;;;6126945;28;20067;-74
2023/02/01 10:17:24;;;;;;;20.35;11.32;;;;;;;;;;6126710;28;20055;-73
2023/02/01 10:20:31;;;;;;;22.73;12.35;;;;;;;;;;6124769;28;20119;-74
2023/02/01 10:23:51;;;;;;;20.00;11.43;;;;;;;;;;6125685;28;20308;-74
2023/02/01 10:26:58;;;;;;;21.17;11.30;;;;;;;;;;6118639;28;20048;-74
2023/02/01 10:30:07;;;;;;;15.73;10.55;;;;;;;;;;6130712;28;20064;-74
2023/02/01 10:33:16;;;;;;;18.50;9.40;;;;;;;;;;6133093;28;20135;-73
2023/02/01 10:36:23;;;;;;;19.65;10.00;;;;;;;;;;6132029;28;20347;-74
2023/02/01 10:39:24;;;;;;;21.80;9.70;;;;;;;;;;6131573;28;20202;-72
2023/02/01 10:42:27;;;;;;;17.83;9.75;;;;;;;;;;6129633;28;20063;-73
2023/02/01 10:45:31;;;;;;;20.03;9.80;;;;;;;;;;6131627;28;20052;-73
2023/02/01 10:48:34;;;;;;;17.77;9.55;;;;;;;;;;6131064;28;20063;-73
2023/02/01 10:51:44;;;;;;;20.23;9.20;;;;;;;;;;6131167;28;20134;-73
2023/02/01 10:54:45;;;;;;;13.40;8.80;;;;;;;;;;6128541;28;20056;-72
2023/02/01 10:57:57;;;;;;;15.50;9.25;;;;;;;;;;6129172;28;20099;-74
2023/02/01 11:01:02;;;;;;;14.73;9.77;;;;;;;;;;6128814;28;20062;-73
2023/02/01 11:04:05;;;;;;;19.10;9.75;;;;;;;;;;6128921;28;20059;-73
2023/02/01 11:07:13;;;;;;;14.10;8.55;;;;;;;;;;6129580;28;20059;-73
2023/02/01 11:10:36;;;;;;;14.70;8.82;;;;;;;;;;6130173;29;20055;-74
2023/02/01 11:13:39;;;;;;;17.50;9.00;;;;;;;;;;6128745;28;20277;-72
2023/02/01 11:16:48;;;;;;;18.55;8.65;;;;;;;;;;6128164;28;20060;-71
2023/02/01 11:19:57;;;;;;;15.07;7.90;;;;;;;;;;6133095;28;20058;-74
2023/02/01 11:22:59;;;;;;;16.70;6.80;;;;;;;;;;6130133;28;20048;-74
2023/02/01 11:26:02;;;;;;;19.20;6.50;;;;;;;;;;6129776;28;20070;-74
2023/02/01 11:29:05;;;;;;;11.32;6.57;;;;;;;;;;6126531;28;20054;-74
2023/02/01 11:32:09;;;;;;;15.73;7.03;;;;;;;;;;6125643;29;20062;-74
2023/02/01 11:35:15;;;;;;;12.50;6.20;;;;;;;;;;6127216;28;20070;-73
2023/02/01 11:38:23;;;;;;;12.48;6.43;;;;;;;;;;6130152;28;20055;-74
2023/02/01 11:41:27;;;;;;;14.07;6.43;;;;;;;;;;6130704;28;20059;-72
2023/02/01 11:44:33;;;;;;;12.02;5.85;;;;;;;;;;6128087;28;20055;-72
2023/02/01 11:47:41;;;;;;;12.93;6.20;;;;;;;;;;6128699;28;20058;-70
2023/02/01 11:50:49;;;;;;;12.20;5.72;;;;;;;;;;6127594;28;20048;-72
2023/02/01 11:54:03;;;;;;;14.25;5.80;;;;;;;;;;6129545;28;20055;-73
2023/02/01 11:57:18;;;;;;;11.05;5.00;;;;;;;;;;6129067;28;20043;-73
2023/02/01 12:00:59;;;;;;;13.02;6.07;;;;;;;;;;6127723;29;20063;-71
2023/02/01 12:04:33;;;;;;;10.23;5.15;;;;;;;;;;6129226;29;20044;-72
2023/02/01 12:07:55;;;;;;;9.18;5.28;;;;;;;;;;6116136;28;21177;-71
2023/02/01 12:11:10;;;;;;;11.10;5.38;;;;;;;;;;6129001;28;20324;-70
2023/02/01 12:14:17;;;;;;;;;;;;;;;;;;6128788;28;20270;-74
2023/02/01 12:17:48;;;;;;;10.95;5.50;;;;;;;;;;6128005;28;20228;-74
2023/02/01 12:21:05;;;;;;;9.85;5.55;;;;;;;;;;6125024;28;20099;-74
2023/02/01 12:24:30;;;;;;;11.00;4.90;;;;;;;;;;6126958;29;20062;-73
2023/02/01 12:27:42;;;;;;;;;;;;;;;;;;6126190;28;20272;-72
2023/02/01 12:31:04;;;;;;;13.35;4.93;;;;;;;;;;6125810;28;20229;-73
2023/02/01 12:34:21;;;;;;;10.90;5.30;;;;;;;;;;6126980;28;20052;-70
2023/02/01 12:37:33;;;;;;;18.00;6.72;;;;;;;;;;6125075;28;20064;-71
2023/02/01 12:40:47;;;;;;;13.50;5.90;;;;;;;;;;6126650;28;20055;-71
2023/02/01 12:43:52;;;;;;;15.23;5.68;;;;;;;;;;6127919;28;20056;-71
2023/02/01 12:46:56;;;;;;;11.80;5.65;;;;;;;;;;6125563;28;20126;-72
2023/02/01 12:50:02;;;;;;;9.77;5.25;;;;;;;;;;6124505;28;20055;-72
2023/02/01 12:53:10;;;;;;;10.43;5.50;;;;;;;;;;6128188;28;20128;-72
2023/02/01 12:56:17;;;;;;;15.25;5.50;;;;;;;;;;6125953;28;20143;-71
2023/02/01 12:59:23;;;;;;;11.77;5.38;;;;;;;;;;6128672;28;20276;-70
2023/02/01 13:02:33;;;;;;;13.07;5.35;;;;;;;;;;6125455;28;20056;-70
2023/02/01 13:05:41;;;;;;;10.55;5.43;;;;;;;;;;6126298;29;20120;-69
2023/02/01 13:08:49;;;;;;;11.30;5.47;;;;;;;;;;6128160;28;20054;-71
2023/02/01 13:11:54;;;;;;;9.75;4.63;;;;;;;;;;6124318;28;20048;-70
2023/02/01 13:14:58;;;;;;;12.70;5.70;;;;;;;;;;6126608;28;20291;-72
2023/02/01 13:18:03;;;;;;;15.80;5.45;;;;;;;;;;6123414;28;20059;-71
2023/02/01 13:21:08;;;;;;;10.18;5.65;;;;;;;;;;6126143;28;20244;-70
2023/02/01 13:24:24;;;;;;;10.57;6.32;;;;;;;;;;6125896;28;20059;-69
2023/02/01 13:27:30;;;;;;;10.30;5.43;;;;;;;;;;6126973;28;20100;-70
2023/02/01 13:30:39;;;;;;;8.77;5.40;;;;;;;;;;6126012;28;20173;-69
2023/02/01 13:34:02;;;;;;;8.35;4.95;;;;;;;;;;6126360;28;20103;-71
2023/02/01 13:37:13;;;;;;;9.15;5.05;;;;;;;;;;6124627;28;20047;-72
2023/02/01 13:40:28;;;;;;;9.27;4.60;;;;;;;;;;6125545;28;20316;-70
2023/02/01 13:43:32;;;;;;;8.43;4.07;;;;;;;;;;6127488;28;20323;-71
2023/02/01 13:46:41;;;;;;;8.88;4.35;;;;;;;;;;6127907;28;20246;-71
2023/02/01 13:49:42;;;;;;;9.10;4.20;;;;;;;;;;6126448;29;20059;-72
2023/02/01 13:52:45;;;;;;;10.48;4.70;;;;;;;;;;6129615;28;20134;-71
2023/02/01 13:55:50;;;;;;;8.88;4.43;;;;;;;;;;6131842;28;20063;-72
2023/02/01 13:58:53;;;;;;;10.60;5.07;;;;;;;;;;6131433;28;20090;-71
2023/02/01 14:01:55;;;;;;;7.55;4.05;;;;;;;;;;6134253;28;20047;-72
2023/02/01 14:04:57;;;;;;;13.38;4.70;;;;;;;;;;6126450;28;20058;-72
2023/02/01 14:08:12;;;;;;;9.13;4.55;;;;;;;;;;6131978;28;20063;-71
2023/02/01 14:11:35;;;;;;;8.75;4.15;;;;;;;;;;6130701;28;20058;-71
2023/02/01 14:14:42;;;;;;;10.48;4.47;;;;;;;;;;6129584;28;20074;-71
2023/02/01 14:17:44;;;;;;;15.23;3.88;;;;;;;;;;6131432;28;20047;-71
2023/02/01 14:20:51;;;;;;;11.55;3.88;;;;;;;;;;6134679;28;20054;-72
2023/02/01 14:23:58;;;;;;;15.38;9.23;;;;;;;;;;6131617;28;20051;-69
2023/02/01 14:27:02;;;;;;;16.95;8.38;;;;;;;;;;6127623;28;20048;-71
2023/02/01 14:30:08;;;;;;;17.23;9.52;;;;;;;;;;6130854;28;20059;-71
2023/02/01 14:33:19;;;;;;;49.75;26.33;;;;;;;;;;6131801;28;20056;-71
2023/02/01 14:36:21;;;;;;;78.95;39.63;;;;;;;;;;6129392;28;20054;-72
2023/02/01 14:39:37;;;;;;;14.43;6.30;;;;;;;;;;6132105;28;20055;-72
2023/02/01 14:42:43;;;;;;;6.85;3.83;;;;;;;;;;6131125;28;20256;-70
2023/02/01 14:45:51;;;;;;;9.02;4.22;;;;;;;;;;6128179;28;20063;-71
2023/02/01 14:48:53;;;;;;;11.13;3.88;;;;;;;;;;6128691;28;20374;-71
2023/02/01 14:51:55;;;;;;;9.30;3.47;;;;;;;;;;6131136;28;20143;-72
2023/02/01 14:55:03;;;;;;;10.35;4.03;;;;;;;;;;6131356;28;20102;-73
2023/02/01 14:58:07;;;;;;;8.20;3.50;;;;;;;;;;6129929;28;20052;-73
2023/02/01 15:01:19;;;;;;;10.43;3.72;;;;;;;;;;6129140;29;20068;-71
2023/02/01 15:04:21;;;;;;;8.95;3.92;;;;;;;;;;6130390;29;20055;-72
2023/02/01 15:07:25;;;;;;;7.00;3.50;;;;;;;;;;6128892;28;20123;-72
2023/02/01 15:10:27;;;;;;;13.65;4.47;;;;;;;;;;6126957;28;20248;-71
2023/02/01 15:13:30;;;;;;;7.32;4.32;;;;;;;;;;6127266;28;20103;-72
2023/02/01 15:16:33;;;;;;;10.15;4.28;;;;;;;;;;6123701;28;20379;-71
2023/02/01 15:19:34;;;;;;;8.18;3.58;;;;;;;;;;6129592;28;20060;-70
2023/02/01 15:22:36;;;;;;;10.63;4.05;;;;;;;;;;6133508;28;20052;-70
2023/02/01 15:25:39;;;;;;;8.35;4.22;;;;;;;;;;6128231;28;20048;-71
2023/02/01 15:28:41;;;;;;;9.05;4.60;;;;;;;;;;6129035;28;20048;-71
2023/02/01 15:31:46;;;;;;;10.05;4.75;;;;;;;;;;6127982;28;20051;-71
2023/02/01 15:34:49;;;;;;;9.55;4.28;;;;;;;;;;6127756;28;20099;-71
2023/02/01 15:37:51;;;;;;;13.95;4.28;;;;;;;;;;6127268;28;20062;-71
2023/02/01 15:40:57;;;;;;;8.38;4.15;;;;;;;;;;6124696;28;20402;-71
2023/02/01 15:44:18;;;;;;;14.73;5.07;;;;;;;;;;6130313;28;20072;-70
2023/02/01 15:47:26;;;;;;;10.63;5.22;;;;;;;;;;6126376;28;20460;-70
2023/02/01 15:50:29;;;;;;;10.48;5.32;;;;;;;;;;6128521;28;20052;-72
2023/02/01 15:53:32;;;;;;;7.78;4.90;;;;;;;;;;6128648;28;20126;-71
2023/02/01 15:56:35;;;;;;;11.35;5.22;;;;;;;;;;6128116;28;20305;-70
2023/02/01 15:59:43;;;;;;;12.77;5.55;;;;;;;;;;6126396;28;20060;-71
2023/02/01 16:02:55;;;;;;;13.32;5.85;;;;;;;;;;6126320;28;20068;-71
2023/02/01 16:05:58;;;;;;;13.35;4.68;;;;;;;;;;6127766;28;20055;-71
2023/02/01 16:09:03;;;;;;;12.80;4.70;;;;;;;;;;6125085;28;20087;-71
2023/02/01 16:12:23;;;;;;;17.20;5.43;;;;;;;;;;6128772;28;20055;-71
2023/02/01 16:15:25;;;;;;;9.27;4.55;;;;;;;;;;6126962;28;20058;-70
2023/02/01 16:18:28;;;;;;;11.93;4.80;;;;;;;;;;6128799;28;20059;-71
2023/02/01 16:21:30;;;;;;;12.53;5.20;;;;;;;;;;6129700;28;20047;-72
2023/02/01 16:24:32;;;;;;;12.70;5.72;;;;;;;;;;6127484;28;20475;-70
2023/02/01 16:27:34;;;;;;;9.68;4.88;;;;;;;;;;6128366;29;20058;-71
2023/02/01 16:30:36;;;;;;;13.90;6.53;;;;;;;;;;6131867;28;20044;-70
2023/02/01 16:33:39;;;;;;;11.68;6.10;;;;;;;;;;6130116;28;20052;-70
2023/02/01 16:36:41;;;;;;;16.98;5.93;;;;;;;;;;6126801;28;20058;-70
2023/02/01 16:39:42;;;;;;;13.30;7.03;;;;;;;;;;6129225;29;20365;-70
2023/02/01 16:42:44;;;;;;;14.25;6.43;;;;;;;;;;6124148;28;20070;-71
2023/02/01 16:45:48;;;;;;;12.73;5.78;;;;;;;;;;6125328;29;20055;-70
2023/02/01 16:48:53;;;;;;;15.02;6.10;;;;;;;;;;6126645;28;20108;-70
2023/02/01 16:51:58;;;;;;;16.33;5.80;;;;;;;;;;6126995;28;20051;-69
2023/02/01 16:54:59;;;;;;;13.45;6.35;;;;;;;;;;6126865;28;20048;-70
2023/02/01 16:58:01;;;;;;;10.60;5.97;;;;;;;;;;6123851;28;20066;-70
2023/02/01 17:01:03;;;;;;;12.35;6.18;;;;;;;;;;6126509;28;20051;-69
2023/02/01 17:04:06;;;;;;;15.60;6.50;;;;;;;;;;6128124;29;20056;-69
2023/02/01 17:07:09;;;;;;;12.87;6.00;;;;;;;;;;6127206;28;20047;-70
2023/02/01 17:10:20;;;;;;;15.60;7.00;;;;;;;;;;6125956;28;20062;-70
2023/02/01 17:13:21;;;;;;;16.35;7.38;;;;;;;;;;6129151;28;20116;-69
2023/02/01 17:16:26;;;;;;;15.52;8.23;;;;;;;;;;6125503;28;20092;-67
2023/02/01 17:19:29;;;;;;;18.05;7.60;;;;;;;;;;6125885;28;20161;-69
2023/02/01 17:22:31;;;;;;;14.03;7.50;;;;;;;;;;6127550;28;20051;-70
2023/02/01 17:25:33;;;;;;;19.20;6.88;;;;;;;;;;6124217;28;20656;-70
2023/02/01 17:28:34;;;;;;;13.23;7.55;;;;;;;;;;6121875;28;20047;-68
2023/02/01 17:31:39;;;;;;;13.13;7.07;;;;;;;;;;6125796;28;20044;-69
2023/02/01 17:34:42;;;;;;;17.42;7.47;;;;;;;;;;6126936;28;20283;-70
2023/02/01 17:37:43;;;;;;;15.80;7.40;;;;;;;;;;6126720;28;20071;-70
2023/02/01 17:40:45;;;;;;;16.17;7.07;;;;;;;;;;6128209;28;20052;-70
2023/02/01 17:43:47;;;;;;;13.35;6.72;;;;;;;;;;6126386;28;20047;-70
2023/02/01 17:46:48;;;;;;;13.77;6.35;;;;;;;;;;6125097;28;20055;-70
2023/02/01 17:49:55;;;;;;;17.23;6.95;;;;;;;;;;6127240;28;20048;-70
2023/02/01 17:52:57;;;;;;;17.30;6.28;;;;;;;;;;6126421;28;20063;-69
2023/02/01 17:55:58;;;;;;;16.58;7.25;;;;;;;;;;6122890;29;20272;-70
2023/02/01 17:59:00;;;;;;;15.27;7.38;;;;;;;;;;6126036;28;20057;-70
2023/02/01 18:02:02;;;;;;;15.90;7.25;;;;;;;;;;6125096;28;20062;-70
2023/02/01 18:05:12;;;;;;;17.30;7.20;;;;;;;;;;6124507;28;20055;-70
2023/02/01 18:08:14;;;;;;;12.93;6.53;;;;;;;;;;6125336;28;20252;-68
2023/02/01 18:11:17;;;;;;;13.20;7.40;;;;;;;;;;6125014;28;20059;-70
2023/02/01 18:14:19;;;;;;;12.75;7.50;;;;;;;;;;6124216;28;20354;-70
2023/02/01 18:17:20;;;;;;;16.42;7.82;;;;;;;;;;6122010;28;20058;-69
2023/02/01 18:20:25;;;;;;;17.15;7.45;;;;;;;;;;6123941;29;20048;-70
2023/02/01 18:23:27;;;;;;;13.20;8.00;;;;;;;;;;6125300;28;20056;-70
2023/02/01 18:26:28;;;;;;;12.98;7.53;;;;;;;;;;6124261;28;20429;-67
2023/02/01 18:29:30;;;;;;;13.43;7.28;;;;;;;;;;6125950;28;20100;-69
2023/02/01 18:32:32;;;;;;;13.27;7.30;;;;;;;;;;6122486;28;20047;-67